sensor_id;sensor_type;location;lat;lon;timestamp;P1;durP1;ratioP1;P2;durP2;ratioP2
46897;SDS011;32646;50.958;6.258;2023-05-31T00:01:13;10.93;;;4.63;;
46897;SDS011;32646;50.958;6.258;2023-05-31T00:03:40;10.27;;;4.07;;
46897;SDS011;32646;50.958;6.258;2023-05-31T00:06:07;8.40;;;3.88;;
46897;SDS011;32646;50.958;6.258;2023-05-31T00:08:33;8.82;;;3.92;;
46897;SDS011;32646;50.958;6.258;2023-05-31T00:11:00;8.75;;;4.28;;
46897;SDS011;32646;50.958;6.258;2023-05-31T00:13:27;10.60;;;4.65;;
46897;SDS011;32646;50.958;6.258;2023-05-31T00:15:53;9.77;;;4.65;;
46897;SDS011;32646;50.958;6.258;2023-05-31T00:18:20;10.52;;;5.05;;
46897;SDS011;32646;50.958;6.258;2023-05-31T00:20:47;10.50;;;4.57;;
46897;SDS011;32646;50.958;6.258;2023-05-31T00:23:13;10.85;;;4.43;;
46897;SDS011;32646;50.958;6.258;2023-05-31T00:25:40;9.55;;;4.10;;
46897;SDS011;32646;50.958;6.258;2023-05-31T00:28:06;10.07;;;4.35;;
46897;SDS011;32646;50.958;6.258;2023-05-31T00:30:33;10.13;;;4.22;;
46897;SDS011;32646;50.958;6.258;2023-05-31T00:33:00;11.32;;;5.53;;
46897;SDS011;32646;50.958;6.258;2023-05-31T00:35:27;9.55;;;4.28;;
46897;SDS011;32646;50.958;6.258;2023-05-31T00:37:53;10.88;;;4.30;;
46897;SDS011;32646;50.958;6.258;2023-05-31T00:40:20;10.07;;;4.72;;
46897;SDS011;32646;50.958;6.258;2023-05-31T00:42:48;10.60;;;4.40;;
46897;SDS011;32646;50.958;6.258;2023-05-31T00:45:14;12.23;;;5.30;;
46897;SDS011;32646;50.958;6.258;2023-05-31T00:47:41;12.52;;;4.90;;
46897;SDS011;32646;50.958;6.258;2023-05-31T00:50:08;9.82;;;3.92;;
46897;SDS011;32646;50.958;6.258;2023-05-31T00:52:35;11.35;;;4.57;;
46897;SDS011;32646;50.958;6.258;2023-05-31T00:55:02;8.90;;;4.07;;
46897;SDS011;32646;50.958;6.258;2023-05-31T00:57:29;9.73;;;4.30;;
46897;SDS011;32646;50.958;6.258;2023-05-31T00:59:56;9.85;;;4.55;;
46897;SDS011;32646;50.958;6.258;2023-05-31T01:02:23;11.88;;;4.68;;
46897;SDS011;32646;50.958;6.258;2023-05-31T01:04:49;11.95;;;4.88;;
46897;SDS011;32646;50.958;6.258;2023-05-31T01:07:16;11.02;;;4.22;;
46897;SDS011;32646;50.958;6.258;2023-05-31T01:09:43;10.50;;;4.55;;
46897;SDS011;32646;50.958;6.258;2023-05-31T01:17:29;11.48;;;5.03;;
46897;SDS011;32646;50.958;6.258;2023-05-31T01:20:16;11.80;;;5.00;;
46897;SDS011;32646;50.958;6.258;2023-05-31T01:22:46;10.63;;;4.65;;
46897;SDS011;32646;50.958;6.258;2023-05-31T01:28:25;10.80;;;4.70;;
46897;SDS011;32646;50.958;6.258;2023-05-31T01:30:53;9.75;;;4.40;;
46897;SDS011;32646;50.958;6.258;2023-05-31T01:33:23;11.85;;;4.97;;
46897;SDS011;32646;50.958;6.258;2023-05-31T01:35:50;9.45;;;4.70;;
46897;SDS011;32646;50.958;6.258;2023-05-31T01:38:17;12.23;;;5.20;;
46897;SDS011;32646;50.958;6.258;2023-05-31T01:40:43;12.35;;;5.22;;
46897;SDS011;32646;50.958;6.258;2023-05-31T01:43:10;10.60;;;4.50;;
46897;SDS011;32646;50.958;6.258;2023-05-31T01:45:38;13.25;;;5.68;;
46897;SDS011;32646;50.958;6.258;2023-05-31T01:48:06;9.35;;;4.43;;
46897;SDS011;32646;50.958;6.258;2023-05-31T01:50:34;12.35;;;4.90;;
46897;SDS011;32646;50.958;6.258;2023-05-31T01:53:03;10.70;;;5.13;;
46897;SDS011;32646;50.958;6.258;2023-05-31T01:55:30;11.20;;;4.28;;
46897;SDS011;32646;50.958;6.258;2023-05-31T01:57:57;10.13;;;4.97;;
46897;SDS011;32646;50.958;6.258;2023-05-31T02:00:24;11.98;;;4.97;;
46897;SDS011;32646;50.958;6.258;2023-05-31T02:02:51;13.77;;;5.53;;
46897;SDS011;32646;50.958;6.258;2023-05-31T02:05:19;12.63;;;5.15;;
46897;SDS011;32646;50.958;6.258;2023-05-31T02:07:45;11.93;;;4.18;;
46897;SDS011;32646;50.958;6.258;2023-05-31T02:10:12;11.35;;;4.55;;
46897;SDS011;32646;50.958;6.258;2023-05-31T02:12:39;11.68;;;5.40;;
46897;SDS011;32646;50.958;6.258;2023-05-31T02:15:06;10.88;;;4.30;;
46897;SDS011;32646;50.958;6.258;2023-05-31T02:17:34;11.50;;;4.55;;
46897;SDS011;32646;50.958;6.258;2023-05-31T02:20:00;11.15;;;5.05;;
46897;SDS011;32646;50.958;6.258;2023-05-31T02:22:27;14.10;;;5.10;;
46897;SDS011;32646;50.958;6.258;2023-05-31T02:24:54;14.63;;;5.47;;
46897;SDS011;32646;50.958;6.258;2023-05-31T02:27:20;12.55;;;5.10;;
46897;SDS011;32646;50.958;6.258;2023-05-31T02:29:47;12.77;;;5.35;;
46897;SDS011;32646;50.958;6.258;2023-05-31T02:32:13;13.80;;;5.80;;
46897;SDS011;32646;50.958;6.258;2023-05-31T02:34:40;13.10;;;6.00;;
46897;SDS011;32646;50.958;6.258;2023-05-31T02:37:06;12.98;;;6.10;;
46897;SDS011;32646;50.958;6.258;2023-05-31T02:39:33;14.15;;;6.47;;
46897;SDS011;32646;50.958;6.258;2023-05-31T02:41:59;13.77;;;6.20;;
46897;SDS011;32646;50.958;6.258;2023-05-31T02:44:26;14.20;;;5.00;;
46897;SDS011;32646;50.958;6.258;2023-05-31T02:46:53;11.65;;;4.82;;
46897;SDS011;32646;50.958;6.258;2023-05-31T02:49:20;16.58;;;5.43;;
46897;SDS011;32646;50.958;6.258;2023-05-31T02:51:46;13.27;;;5.25;;
46897;SDS011;32646;50.958;6.258;2023-05-31T02:54:13;11.80;;;5.13;;
46897;SDS011;32646;50.958;6.258;2023-05-31T02:56:39;13.55;;;5.18;;
46897;SDS011;32646;50.958;6.258;2023-05-31T02:59:06;13.32;;;4.93;;
46897;SDS011;32646;50.958;6.258;2023-05-31T03:01:32;9.77;;;5.03;;
46897;SDS011;32646;50.958;6.258;2023-05-31T03:03:59;13.00;;;5.70;;
46897;SDS011;32646;50.958;6.258;2023-05-31T03:06:26;15.52;;;5.68;;
46897;SDS011;32646;50.958;6.258;2023-05-31T03:08:52;14.10;;;5.63;;
46897;SDS011;32646;50.958;6.258;2023-05-31T03:11:19;14.27;;;5.47;;
46897;SDS011;32646;50.958;6.258;2023-05-31T03:13:48;13.32;;;5.47;;
46897;SDS011;32646;50.958;6.258;2023-05-31T03:16:14;16.38;;;6.50;;
46897;SDS011;32646;50.958;6.258;2023-05-31T03:18:41;16.25;;;6.60;;
46897;SDS011;32646;50.958;6.258;2023-05-31T03:21:08;16.30;;;7.15;;
46897;SDS011;32646;50.958;6.258;2023-05-31T03:23:34;19.13;;;6.97;;
46897;SDS011;32646;50.958;6.258;2023-05-31T03:26:01;15.52;;;6.53;;
46897;SDS011;32646;50.958;6.258;2023-05-31T03:28:27;16.45;;;6.97;;
46897;SDS011;32646;50.958;6.258;2023-05-31T03:30:54;19.27;;;7.72;;
46897;SDS011;32646;50.958;6.258;2023-05-31T03:33:21;16.63;;;7.20;;
46897;SDS011;32646;50.958;6.258;2023-05-31T03:35:47;15.88;;;6.47;;
46897;SDS011;32646;50.958;6.258;2023-05-31T03:38:14;18.38;;;6.85;;
46897;SDS011;32646;50.958;6.258;2023-05-31T03:40:40;16.23;;;6.90;;
46897;SDS011;32646;50.958;6.258;2023-05-31T03:43:07;17.17;;;6.13;;
46897;SDS011;32646;50.958;6.258;2023-05-31T03:45:34;17.73;;;6.72;;
46897;SDS011;32646;50.958;6.258;2023-05-31T03:48:00;16.30;;;7.47;;
46897;SDS011;32646;50.958;6.258;2023-05-31T03:50:27;19.50;;;7.03;;
46897;SDS011;32646;50.958;6.258;2023-05-31T03:52:53;14.88;;;6.90;;
46897;SDS011;32646;50.958;6.258;2023-05-31T03:55:20;16.00;;;6.57;;
46897;SDS011;32646;50.958;6.258;2023-05-31T03:57:47;20.23;;;7.25;;
46897;SDS011;32646;50.958;6.258;2023-05-31T04:00:13;14.57;;;6.80;;
46897;SDS011;32646;50.958;6.258;2023-05-31T04:02:40;17.15;;;6.82;;
46897;SDS011;32646;50.958;6.258;2023-05-31T04:05:27;14.07;;;6.03;;
46897;SDS011;32646;50.958;6.258;2023-05-31T04:07:53;17.10;;;7.00;;
46897;SDS011;32646;50.958;6.258;2023-05-31T04:10:20;20.15;;;8.13;;
46897;SDS011;32646;50.958;6.258;2023-05-31T04:12:47;17.60;;;8.40;;
46897;SDS011;32646;50.958;6.258;2023-05-31T04:15:13;17.60;;;6.63;;
46897;SDS011;32646;50.958;6.258;2023-05-31T04:17:40;17.25;;;7.50;;
46897;SDS011;32646;50.958;6.258;2023-05-31T04:20:06;19.55;;;7.47;;
46897;SDS011;32646;50.958;6.258;2023-05-31T04:22:34;21.55;;;7.82;;
46897;SDS011;32646;50.958;6.258;2023-05-31T04:25:01;17.75;;;7.40;;
46897;SDS011;32646;50.958;6.258;2023-05-31T04:27:28;18.27;;;7.28;;
46897;SDS011;32646;50.958;6.258;2023-05-31T04:29:55;18.85;;;7.72;;
46897;SDS011;32646;50.958;6.258;2023-05-31T04:32:22;18.35;;;7.32;;
46897;SDS011;32646;50.958;6.258;2023-05-31T04:34:49;14.57;;;6.60;;
46897;SDS011;32646;50.958;6.258;2023-05-31T04:37:15;19.23;;;7.75;;
46897;SDS011;32646;50.958;6.258;2023-05-31T04:39:42;14.90;;;6.43;;
46897;SDS011;32646;50.958;6.258;2023-05-31T04:42:08;15.98;;;7.32;;
46897;SDS011;32646;50.958;6.258;2023-05-31T04:44:35;16.90;;;7.35;;
46897;SDS011;32646;50.958;6.258;2023-05-31T04:47:02;14.45;;;6.53;;
46897;SDS011;32646;50.958;6.258;2023-05-31T04:49:28;18.08;;;7.93;;
46897;SDS011;32646;50.958;6.258;2023-05-31T04:52:02;15.52;;;6.60;;
46897;SDS011;32646;50.958;6.258;2023-05-31T04:54:29;15.82;;;7.55;;
46897;SDS011;32646;50.958;6.258;2023-05-31T04:56:56;22.23;;;8.13;;
46897;SDS011;32646;50.958;6.258;2023-05-31T04:59:22;17.20;;;7.65;;
46897;SDS011;32646;50.958;6.258;2023-05-31T05:01:49;17.40;;;7.07;;
46897;SDS011;32646;50.958;6.258;2023-05-31T05:04:15;15.45;;;7.20;;
46897;SDS011;32646;50.958;6.258;2023-05-31T05:06:42;14.48;;;6.38;;
46897;SDS011;32646;50.958;6.258;2023-05-31T05:09:09;16.60;;;7.53;;
46897;SDS011;32646;50.958;6.258;2023-05-31T05:11:35;18.20;;;7.43;;
46897;SDS011;32646;50.958;6.258;2023-05-31T05:14:02;15.80;;;7.18;;
46897;SDS011;32646;50.958;6.258;2023-05-31T05:16:28;14.85;;;7.07;;
46897;SDS011;32646;50.958;6.258;2023-05-31T05:18:55;15.73;;;7.70;;
46897;SDS011;32646;50.958;6.258;2023-05-31T05:21:21;16.42;;;7.90;;
46897;SDS011;32646;50.958;6.258;2023-05-31T05:23:48;16.63;;;7.40;;
46897;SDS011;32646;50.958;6.258;2023-05-31T05:26:14;17.02;;;6.95;;
46897;SDS011;32646;50.958;6.258;2023-05-31T05:28:41;15.60;;;7.43;;
46897;SDS011;32646;50.958;6.258;2023-05-31T05:31:08;15.95;;;7.68;;
46897;SDS011;32646;50.958;6.258;2023-05-31T05:33:34;16.08;;;7.28;;
46897;SDS011;32646;50.958;6.258;2023-05-31T05:36:01;17.90;;;7.18;;
46897;SDS011;32646;50.958;6.258;2023-05-31T05:38:27;15.65;;;7.53;;
46897;SDS011;32646;50.958;6.258;2023-05-31T05:40:54;14.90;;;7.68;;
46897;SDS011;32646;50.958;6.258;2023-05-31T05:43:21;16.02;;;7.93;;
46897;SDS011;32646;50.958;6.258;2023-05-31T05:45:47;14.23;;;6.65;;
46897;SDS011;32646;50.958;6.258;2023-05-31T05:48:14;14.93;;;7.38;;
46897;SDS011;32646;50.958;6.258;2023-05-31T05:50:40;16.50;;;7.32;;
46897;SDS011;32646;50.958;6.258;2023-05-31T05:53:07;16.48;;;6.75;;
46897;SDS011;32646;50.958;6.258;2023-05-31T05:55:34;13.93;;;6.60;;
46897;SDS011;32646;50.958;6.258;2023-05-31T05:58:01;16.67;;;6.80;;
46897;SDS011;32646;50.958;6.258;2023-05-31T06:00:27;16.50;;;8.18;;
46897;SDS011;32646;50.958;6.258;2023-05-31T06:02:54;15.10;;;6.05;;
46897;SDS011;32646;50.958;6.258;2023-05-31T06:05:21;14.38;;;6.35;;
46897;SDS011;32646;50.958;6.258;2023-05-31T06:07:47;14.10;;;6.53;;
46897;SDS011;32646;50.958;6.258;2023-05-31T06:10:14;12.80;;;6.45;;
46897;SDS011;32646;50.958;6.258;2023-05-31T06:12:40;13.05;;;6.25;;
46897;SDS011;32646;50.958;6.258;2023-05-31T06:15:07;12.55;;;7.18;;
46897;SDS011;32646;50.958;6.258;2023-05-31T06:17:34;16.95;;;7.10;;
46897;SDS011;32646;50.958;6.258;2023-05-31T06:20:01;14.98;;;7.22;;
46897;SDS011;32646;50.958;6.258;2023-05-31T06:22:28;16.08;;;7.35;;
46897;SDS011;32646;50.958;6.258;2023-05-31T06:24:56;15.55;;;6.38;;
46897;SDS011;32646;50.958;6.258;2023-05-31T06:27:23;10.38;;;5.32;;
46897;SDS011;32646;50.958;6.258;2023-05-31T06:29:50;13.52;;;6.57;;
46897;SDS011;32646;50.958;6.258;2023-05-31T06:32:17;12.90;;;6.20;;
46897;SDS011;32646;50.958;6.258;2023-05-31T06:34:43;12.90;;;6.22;;
46897;SDS011;32646;50.958;6.258;2023-05-31T06:37:10;10.98;;;5.25;;
46897;SDS011;32646;50.958;6.258;2023-05-31T06:39:36;16.40;;;6.65;;
46897;SDS011;32646;50.958;6.258;2023-05-31T06:42:03;13.73;;;5.53;;
46897;SDS011;32646;50.958;6.258;2023-05-31T06:44:30;12.77;;;5.63;;
46897;SDS011;32646;50.958;6.258;2023-05-31T06:47:03;13.18;;;5.55;;
46897;SDS011;32646;50.958;6.258;2023-05-31T06:49:30;12.13;;;5.07;;
46897;SDS011;32646;50.958;6.258;2023-05-31T06:51:56;11.00;;;5.00;;
46897;SDS011;32646;50.958;6.258;2023-05-31T06:54:23;11.65;;;5.38;;
46897;SDS011;32646;50.958;6.258;2023-05-31T06:56:50;15.55;;;5.43;;
46897;SDS011;32646;50.958;6.258;2023-05-31T06:59:16;10.65;;;4.93;;
46897;SDS011;32646;50.958;6.258;2023-05-31T07:01:43;14.75;;;5.10;;
46897;SDS011;32646;50.958;6.258;2023-05-31T07:04:09;10.68;;;5.15;;
46897;SDS011;32646;50.958;6.258;2023-05-31T07:06:36;10.20;;;4.75;;
46897;SDS011;32646;50.958;6.258;2023-05-31T07:09:03;13.50;;;5.00;;
46897;SDS011;32646;50.958;6.258;2023-05-31T07:11:30;14.18;;;4.88;;
46897;SDS011;32646;50.958;6.258;2023-05-31T07:13:57;14.30;;;5.07;;
46897;SDS011;32646;50.958;6.258;2023-05-31T07:16:23;13.65;;;5.50;;
46897;SDS011;32646;50.958;6.258;2023-05-31T07:18:50;10.10;;;4.97;;
46897;SDS011;32646;50.958;6.258;2023-05-31T07:21:17;14.05;;;5.40;;
46897;SDS011;32646;50.958;6.258;2023-05-31T07:23:43;13.15;;;5.40;;
46897;SDS011;32646;50.958;6.258;2023-05-31T07:26:10;8.90;;;4.30;;
46897;SDS011;32646;50.958;6.258;2023-05-31T07:28:37;12.40;;;5.60;;
46897;SDS011;32646;50.958;6.258;2023-05-31T07:31:03;11.10;;;4.70;;
46897;SDS011;32646;50.958;6.258;2023-05-31T07:33:30;9.25;;;4.47;;
46897;SDS011;32646;50.958;6.258;2023-05-31T07:36:00;10.68;;;4.18;;
46897;SDS011;32646;50.958;6.258;2023-05-31T07:38:27;8.52;;;3.55;;
46897;SDS011;32646;50.958;6.258;2023-05-31T07:40:54;11.30;;;4.15;;
46897;SDS011;32646;50.958;6.258;2023-05-31T07:43:20;7.32;;;3.70;;
46897;SDS011;32646;50.958;6.258;2023-05-31T07:45:48;12.20;;;4.90;;
46897;SDS011;32646;50.958;6.258;2023-05-31T07:48:18;8.50;;;3.70;;
46897;SDS011;32646;50.958;6.258;2023-05-31T07:50:45;8.65;;;4.38;;
46897;SDS011;32646;50.958;6.258;2023-05-31T07:53:12;12.73;;;3.88;;
46897;SDS011;32646;50.958;6.258;2023-05-31T07:55:39;11.32;;;3.92;;
46897;SDS011;32646;50.958;6.258;2023-05-31T07:58:06;8.88;;;4.18;;
46897;SDS011;32646;50.958;6.258;2023-05-31T08:00:32;9.10;;;3.83;;
46897;SDS011;32646;50.958;6.258;2023-05-31T08:03:00;10.27;;;3.47;;
46897;SDS011;32646;50.958;6.258;2023-05-31T08:05:27;7.82;;;3.60;;
46897;SDS011;32646;50.958;6.258;2023-05-31T08:07:54;8.35;;;3.75;;
46897;SDS011;32646;50.958;6.258;2023-05-31T08:10:21;9.52;;;3.80;;
46897;SDS011;32646;50.958;6.258;2023-05-31T08:12:47;9.93;;;4.03;;
46897;SDS011;32646;50.958;6.258;2023-05-31T08:15:14;9.45;;;4.05;;
46897;SDS011;32646;50.958;6.258;2023-05-31T08:17:40;10.38;;;3.85;;
46897;SDS011;32646;50.958;6.258;2023-05-31T08:20:07;11.43;;;3.70;;
46897;SDS011;32646;50.958;6.258;2023-05-31T08:22:34;7.20;;;3.75;;
46897;SDS011;32646;50.958;6.258;2023-05-31T08:25:01;8.13;;;4.07;;
46897;SDS011;32646;50.958;6.258;2023-05-31T08:27:28;8.13;;;4.40;;
46897;SDS011;32646;50.958;6.258;2023-05-31T08:29:54;8.20;;;3.88;;
46897;SDS011;32646;50.958;6.258;2023-05-31T08:32:21;7.50;;;4.03;;
46897;SDS011;32646;50.958;6.258;2023-05-31T08:34:47;7.25;;;3.90;;
46897;SDS011;32646;50.958;6.258;2023-05-31T08:37:14;8.13;;;3.75;;
46897;SDS011;32646;50.958;6.258;2023-05-31T08:39:41;7.72;;;4.13;;
46897;SDS011;32646;50.958;6.258;2023-05-31T08:42:10;8.63;;;3.92;;
46897;SDS011;32646;50.958;6.258;2023-05-31T08:44:42;8.25;;;3.67;;
46897;SDS011;32646;50.958;6.258;2023-05-31T08:47:14;8.23;;;3.85;;
46897;SDS011;32646;50.958;6.258;2023-05-31T08:49:54;7.35;;;3.85;;
46897;SDS011;32646;50.958;6.258;2023-05-31T08:52:29;8.88;;;3.92;;
46897;SDS011;32646;50.958;6.258;2023-05-31T08:54:58;8.32;;;3.90;;
46897;SDS011;32646;50.958;6.258;2023-05-31T08:57:25;9.48;;;4.10;;
46897;SDS011;32646;50.958;6.258;2023-05-31T08:59:52;9.25;;;3.90;;
46897;SDS011;32646;50.958;6.258;2023-05-31T09:02:19;8.02;;;4.30;;
46897;SDS011;32646;50.958;6.258;2023-05-31T09:04:47;8.68;;;3.53;;
46897;SDS011;32646;50.958;6.258;2023-05-31T09:07:13;10.07;;;3.70;;
46897;SDS011;32646;50.958;6.258;2023-05-31T09:09:40;8.02;;;3.65;;
46897;SDS011;32646;50.958;6.258;2023-05-31T09:12:07;12.50;;;3.90;;
46897;SDS011;32646;50.958;6.258;2023-05-31T09:14:33;7.82;;;3.88;;
46897;SDS011;32646;50.958;6.258;2023-05-31T09:17:00;8.05;;;3.80;;
46897;SDS011;32646;50.958;6.258;2023-05-31T09:19:27;9.27;;;3.88;;
46897;SDS011;32646;50.958;6.258;2023-05-31T09:21:53;9.68;;;4.00;;
46897;SDS011;32646;50.958;6.258;2023-05-31T09:24:20;8.10;;;3.40;;
46897;SDS011;32646;50.958;6.258;2023-05-31T09:26:47;7.30;;;3.20;;
46897;SDS011;32646;50.958;6.258;2023-05-31T09:29:15;7.80;;;3.40;;
46897;SDS011;32646;50.958;6.258;2023-05-31T09:31:42;10.82;;;3.80;;
46897;SDS011;32646;50.958;6.258;2023-05-31T09:34:25;11.70;;;3.50;;
46897;SDS011;32646;50.958;6.258;2023-05-31T09:37:00;8.18;;;3.55;;
46897;SDS011;32646;50.958;6.258;2023-05-31T09:39:27;8.68;;;3.53;;
46897;SDS011;32646;50.958;6.258;2023-05-31T09:41:55;7.70;;;3.00;;
46897;SDS011;32646;50.958;6.258;2023-05-31T09:44:26;9.02;;;3.42;;
46897;SDS011;32646;50.958;6.258;2023-05-31T09:46:53;8.65;;;2.97;;
46897;SDS011;32646;50.958;6.258;2023-05-31T09:49:19;5.32;;;2.65;;
46897;SDS011;32646;50.958;6.258;2023-05-31T09:51:50;7.93;;;2.70;;
46897;SDS011;32646;50.958;6.258;2023-05-31T09:54:17;6.18;;;2.80;;
46897;SDS011;32646;50.958;6.258;2023-05-31T09:56:44;9.10;;;2.70;;
46897;SDS011;32646;50.958;6.258;2023-05-31T09:59:10;6.80;;;2.67;;
46897;SDS011;32646;50.958;6.258;2023-05-31T10:01:40;7.85;;;2.63;;
46897;SDS011;32646;50.958;6.258;2023-05-31T10:04:06;7.10;;;2.40;;
46897;SDS011;32646;50.958;6.258;2023-05-31T10:06:33;6.47;;;2.70;;
46897;SDS011;32646;50.958;6.258;2023-05-31T10:09:01;6.53;;;2.80;;
46897;SDS011;32646;50.958;6.258;2023-05-31T10:11:31;6.72;;;2.55;;
46897;SDS011;32646;50.958;6.258;2023-05-31T10:13:59;7.60;;;2.10;;
46897;SDS011;32646;50.958;6.258;2023-05-31T10:16:32;5.28;;;2.20;;
46897;SDS011;32646;50.958;6.258;2023-05-31T10:19:06;7.57;;;2.40;;
46897;SDS011;32646;50.958;6.258;2023-05-31T10:21:37;7.07;;;2.30;;
46897;SDS011;32646;50.958;6.258;2023-05-31T10:24:16;4.65;;;2.30;;
46897;SDS011;32646;50.958;6.258;2023-05-31T10:29:23;8.63;;;2.50;;
46897;SDS011;32646;50.958;6.258;2023-05-31T10:31:53;6.72;;;2.35;;
46897;SDS011;32646;50.958;6.258;2023-05-31T10:34:25;6.32;;;2.40;;
46897;SDS011;32646;50.958;6.258;2023-05-31T10:36:52;5.47;;;1.90;;
46897;SDS011;32646;50.958;6.258;2023-05-31T10:39:35;5.75;;;2.30;;
46897;SDS011;32646;50.958;6.258;2023-05-31T10:42:15;7.43;;;2.35;;
46897;SDS011;32646;50.958;6.258;2023-05-31T10:45:13;6.30;;;2.08;;
46897;SDS011;32646;50.958;6.258;2023-05-31T10:47:51;6.43;;;2.45;;
46897;SDS011;32646;50.958;6.258;2023-05-31T10:53:28;7.78;;;2.53;;
46897;SDS011;32646;50.958;6.258;2023-05-31T10:56:05;6.55;;;2.50;;
46897;SDS011;32646;50.958;6.258;2023-05-31T10:58:37;7.35;;;2.30;;
46897;SDS011;32646;50.958;6.258;2023-05-31T11:01:12;5.47;;;2.30;;
46897;SDS011;32646;50.958;6.258;2023-05-31T11:03:45;8.10;;;2.65;;
46897;SDS011;32646;50.958;6.258;2023-05-31T11:06:17;9.40;;;2.55;;
46897;SDS011;32646;50.958;6.258;2023-05-31T11:08:56;7.82;;;2.53;;
46897;SDS011;32646;50.958;6.258;2023-05-31T11:14:06;5.65;;;2.20;;
46897;SDS011;32646;50.958;6.258;2023-05-31T11:19:16;7.38;;;2.33;;
46897;SDS011;32646;50.958;6.258;2023-05-31T11:21:47;7.30;;;2.50;;
46897;SDS011;32646;50.958;6.258;2023-05-31T11:26:56;6.72;;;2.53;;
46897;SDS011;32646;50.958;6.258;2023-05-31T11:32:11;5.65;;;2.40;;
46897;SDS011;32646;50.958;6.258;2023-05-31T11:34:55;6.82;;;3.47;;
46897;SDS011;32646;50.958;6.258;2023-05-31T11:37:23;10.90;;;5.43;;
46897;SDS011;32646;50.958;6.258;2023-05-31T11:39:54;7.75;;;2.47;;
46897;SDS011;32646;50.958;6.258;2023-05-31T11:42:21;5.95;;;2.75;;
46897;SDS011;32646;50.958;6.258;2023-05-31T11:44:49;5.20;;;2.10;;
46897;SDS011;32646;50.958;6.258;2023-05-31T11:47:19;6.32;;;2.00;;
46897;SDS011;32646;50.958;6.258;2023-05-31T11:49:47;5.28;;;1.73;;
46897;SDS011;32646;50.958;6.258;2023-05-31T11:52:14;5.47;;;1.80;;
46897;SDS011;32646;50.958;6.258;2023-05-31T11:54:43;5.13;;;1.77;;
46897;SDS011;32646;50.958;6.258;2023-05-31T11:57:11;5.32;;;1.70;;
46897;SDS011;32646;50.958;6.258;2023-05-31T11:59:38;5.68;;;1.83;;
46897;SDS011;32646;50.958;6.258;2023-05-31T12:02:06;5.95;;;1.85;;
46897;SDS011;32646;50.958;6.258;2023-05-31T12:07:04;4.97;;;1.88;;
46897;SDS011;32646;50.958;6.258;2023-05-31T12:09:33;6.25;;;2.13;;
46897;SDS011;32646;50.958;6.258;2023-05-31T12:12:00;8.63;;;2.03;;
46897;SDS011;32646;50.958;6.258;2023-05-31T12:14:28;6.18;;;2.03;;
46897;SDS011;32646;50.958;6.258;2023-05-31T12:16:54;7.32;;;2.10;;
46897;SDS011;32646;50.958;6.258;2023-05-31T12:19:21;5.80;;;1.60;;
46897;SDS011;32646;50.958;6.258;2023-05-31T12:21:48;6.35;;;2.17;;
46897;SDS011;32646;50.958;6.258;2023-05-31T12:24:15;5.40;;;1.80;;
46897;SDS011;32646;50.958;6.258;2023-05-31T12:26:43;8.30;;;1.98;;
46897;SDS011;32646;50.958;6.258;2023-05-31T12:29:11;5.18;;;1.50;;
46897;SDS011;32646;50.958;6.258;2023-05-31T12:31:38;5.40;;;1.80;;
46897;SDS011;32646;50.958;6.258;2023-05-31T12:39:12;6.68;;;1.83;;
46897;SDS011;32646;50.958;6.258;2023-05-31T12:41:48;6.65;;;2.03;;
46897;SDS011;32646;50.958;6.258;2023-05-31T12:44:22;7.15;;;2.03;;
46897;SDS011;32646;50.958;6.258;2023-05-31T12:46:49;5.57;;;2.35;;
46897;SDS011;32646;50.958;6.258;2023-05-31T12:49:20;7.20;;;2.20;;
46897;SDS011;32646;50.958;6.258;2023-05-31T12:51:57;7.97;;;2.28;;
46897;SDS011;32646;50.958;6.258;2023-05-31T12:54:38;4.93;;;2.00;;
46897;SDS011;32646;50.958;6.258;2023-05-31T12:57:06;5.47;;;2.10;;
46897;SDS011;32646;50.958;6.258;2023-05-31T12:59:34;7.07;;;2.00;;
46897;SDS011;32646;50.958;6.258;2023-05-31T13:02:01;8.82;;;2.10;;
46897;SDS011;32646;50.958;6.258;2023-05-31T13:04:29;7.05;;;1.90;;
46897;SDS011;32646;50.958;6.258;2023-05-31T13:06:56;4.55;;;1.90;;
46897;SDS011;32646;50.958;6.258;2023-05-31T13:09:23;6.53;;;2.13;;
46897;SDS011;32646;50.958;6.258;2023-05-31T13:11:50;5.03;;;2.25;;
46897;SDS011;32646;50.958;6.258;2023-05-31T13:14:18;7.35;;;2.03;;
46897;SDS011;32646;50.958;6.258;2023-05-31T13:16:50;7.90;;;2.10;;
46897;SDS011;32646;50.958;6.258;2023-05-31T13:19:18;7.78;;;2.20;;
46897;SDS011;32646;50.958;6.258;2023-05-31T13:21:45;7.10;;;2.08;;
46897;SDS011;32646;50.958;6.258;2023-05-31T13:24:11;6.90;;;1.88;;
46897;SDS011;32646;50.958;6.258;2023-05-31T13:26:38;6.32;;;2.08;;
46897;SDS011;32646;50.958;6.258;2023-05-31T13:29:05;6.18;;;1.85;;
46897;SDS011;32646;50.958;6.258;2023-05-31T13:31:31;5.20;;;2.13;;
46897;SDS011;32646;50.958;6.258;2023-05-31T13:33:58;4.45;;;1.65;;
46897;SDS011;32646;50.958;6.258;2023-05-31T13:36:25;5.97;;;2.42;;
46897;SDS011;32646;50.958;6.258;2023-05-31T13:38:52;6.60;;;1.85;;
46897;SDS011;32646;50.958;6.258;2023-05-31T13:41:19;7.68;;;2.10;;
46897;SDS011;32646;50.958;6.258;2023-05-31T13:43:45;4.90;;;1.95;;
46897;SDS011;32646;50.958;6.258;2023-05-31T13:46:12;5.03;;;2.03;;
46897;SDS011;32646;50.958;6.258;2023-05-31T13:48:39;5.82;;;2.20;;
46897;SDS011;32646;50.958;6.258;2023-05-31T13:51:06;6.53;;;2.30;;
46897;SDS011;32646;50.958;6.258;2023-05-31T13:53:35;6.25;;;2.08;;
46897;SDS011;32646;50.958;6.258;2023-05-31T13:56:02;6.18;;;1.92;;
46897;SDS011;32646;50.958;6.258;2023-05-31T13:58:29;5.60;;;1.80;;
46897;SDS011;32646;50.958;6.258;2023-05-31T14:00:59;5.38;;;1.92;;
46897;SDS011;32646;50.958;6.258;2023-05-31T14:03:26;4.47;;;1.83;;
46897;SDS011;32646;50.958;6.258;2023-05-31T14:05:52;4.93;;;1.65;;
46897;SDS011;32646;50.958;6.258;2023-05-31T14:08:19;7.60;;;2.00;;
46897;SDS011;32646;50.958;6.258;2023-05-31T14:24:28;5.20;;;1.98;;
46897;SDS011;32646;50.958;6.258;2023-05-31T14:27:00;6.25;;;2.13;;
46897;SDS011;32646;50.958;6.258;2023-05-31T14:29:27;7.53;;;2.00;;
46897;SDS011;32646;50.958;6.258;2023-05-31T14:31:53;3.92;;;1.88;;
46897;SDS011;32646;50.958;6.258;2023-05-31T14:34:20;6.80;;;1.90;;
46897;SDS011;32646;50.958;6.258;2023-05-31T14:36:47;8.48;;;2.00;;
46897;SDS011;32646;50.958;6.258;2023-05-31T14:39:14;6.97;;;2.20;;
46897;SDS011;32646;50.958;6.258;2023-05-31T14:41:40;5.05;;;1.80;;
46897;SDS011;32646;50.958;6.258;2023-05-31T14:44:07;5.93;;;1.98;;
46897;SDS011;32646;50.958;6.258;2023-05-31T14:46:33;5.10;;;1.88;;
46897;SDS011;32646;50.958;6.258;2023-05-31T14:49:00;5.97;;;2.22;;
46897;SDS011;32646;50.958;6.258;2023-05-31T14:51:27;5.53;;;1.85;;
46897;SDS011;32646;50.958;6.258;2023-05-31T14:53:53;5.82;;;1.90;;
46897;SDS011;32646;50.958;6.258;2023-05-31T14:56:20;6.00;;;1.73;;
46897;SDS011;32646;50.958;6.258;2023-05-31T14:58:46;4.53;;;1.88;;
46897;SDS011;32646;50.958;6.258;2023-05-31T15:01:14;5.50;;;1.70;;
46897;SDS011;32646;50.958;6.258;2023-05-31T15:03:41;5.22;;;1.70;;
46897;SDS011;32646;50.958;6.258;2023-05-31T15:06:07;6.15;;;2.03;;
46897;SDS011;32646;50.958;6.258;2023-05-31T15:08:34;7.93;;;1.90;;
46897;SDS011;32646;50.958;6.258;2023-05-31T15:11:01;6.72;;;1.60;;
46897;SDS011;32646;50.958;6.258;2023-05-31T15:13:28;6.57;;;1.80;;
46897;SDS011;32646;50.958;6.258;2023-05-31T15:15:54;6.63;;;1.80;;
46897;SDS011;32646;50.958;6.258;2023-05-31T15:18:21;5.65;;;1.92;;
46897;SDS011;32646;50.958;6.258;2023-05-31T15:20:48;5.68;;;1.83;;
46897;SDS011;32646;50.958;6.258;2023-05-31T15:23:15;4.25;;;1.65;;
46897;SDS011;32646;50.958;6.258;2023-05-31T15:25:42;8.25;;;2.00;;
46897;SDS011;32646;50.958;6.258;2023-05-31T15:28:09;6.75;;;1.90;;
46897;SDS011;32646;50.958;6.258;2023-05-31T15:30:35;5.15;;;1.65;;